sensor_id;sensor_type;location;lat;lon;timestamp;pressure;altitude;pressure_sealevel;temperature;humidity
19259;BME280;9763;48.780;9.212;2023-06-10T00:02:51;97961.53;;;23.34;nan
19259;BME280;9763;48.780;9.212;2023-06-10T00:06:16;97975.69;;;23.34;nan
19259;BME280;9763;48.780;9.212;2023-06-10T00:09:41;97969.28;;;23.29;nan
19259;BME280;9763;48.780;9.212;2023-06-10T00:13:07;97966.38;;;23.24;nan
19259;BME280;9763;48.780;9.212;2023-06-10T00:16:32;97971.81;;;23.16;nan
19259;BME280;9763;48.780;9.212;2023-06-10T00:19:56;97973.59;;;23.09;nan
19259;BME280;9763;48.780;9.212;2023-06-10T00:23:20;97963.34;;;23.06;nan
19259;BME280;9763;48.780;9.212;2023-06-10T00:26:45;97969.03;;;23.03;nan
19259;BME280;9763;48.780;9.212;2023-06-10T00:30:10;97947.22;;;22.92;nan
19259;BME280;9763;48.780;9.212;2023-06-10T00:33:35;97956.66;;;22.95;nan
19259;BME280;9763;48.780;9.212;2023-06-10T00:36:58;97963.38;;;22.91;nan
19259;BME280;9763;48.780;9.212;2023-06-10T00:40:23;97967.59;;;22.85;nan
19259;BME280;9763;48.780;9.212;2023-06-10T00:43:46;97967.19;;;22.82;nan
19259;BME280;9763;48.780;9.212;2023-06-10T00:47:10;97966.22;;;22.75;nan
19259;BME280;9763;48.780;9.212;2023-06-10T00:50:35;97947.03;;;22.58;nan
19259;BME280;9763;48.780;9.212;2023-06-10T00:54:02;97964.50;;;22.67;nan
19259;BME280;9763;48.780;9.212;2023-06-10T00:57:26;97964.88;;;22.64;nan
19259;BME280;9763;48.780;9.212;2023-06-10T01:00:51;97957.09;;;22.62;nan
19259;BME280;9763;48.780;9.212;2023-06-10T01:04:16;97958.84;;;22.55;nan
19259;BME280;9763;48.780;9.212;2023-06-10T01:07:56;97963.16;;;22.56;nan
19259;BME280;9763;48.780;9.212;2023-06-10T01:11:31;97946.88;;;22.45;nan
19259;BME280;9763;48.780;9.212;2023-06-10T01:14:59;97952.78;;;22.47;nan
19259;BME280;9763;48.780;9.212;2023-06-10T01:18:29;97953.00;;;22.45;nan
19259;BME280;9763;48.780;9.212;2023-06-10T01:21:55;97957.69;;;22.43;nan
19259;BME280;9763;48.780;9.212;2023-06-10T01:25:21;97957.88;;;22.42;nan
19259;BME280;9763;48.780;9.212;2023-06-10T01:28:57;97938.44;;;22.26;nan
19259;BME280;9763;48.780;9.212;2023-06-10T01:32:32;97950.19;;;22.32;nan
19259;BME280;9763;48.780;9.212;2023-06-10T01:35:58;97940.72;;;22.15;nan
19259;BME280;9763;48.780;9.212;2023-06-10T01:39:25;97955.31;;;22.19;nan
19259;BME280;9763;48.780;9.212;2023-06-10T01:42:49;97960.81;;;22.17;nan
19259;BME280;9763;48.780;9.212;2023-06-10T01:46:15;97962.19;;;22.13;nan
19259;BME280;9763;48.780;9.212;2023-06-10T01:49:42;97964.38;;;22.10;nan
19259;BME280;9763;48.780;9.212;2023-06-10T01:53:05;97959.81;;;22.04;nan
19259;BME280;9763;48.780;9.212;2023-06-10T01:56:31;97961.81;;;22.02;nan
19259;BME280;9763;48.780;9.212;2023-06-10T01:59:54;97967.31;;;22.00;nan
19259;BME280;9763;48.780;9.212;2023-06-10T02:03:18;97966.00;;;21.96;nan
19259;BME280;9763;48.780;9.212;2023-06-10T02:06:42;97968.22;;;21.92;nan
19259;BME280;9763;48.780;9.212;2023-06-10T02:10:07;97973.22;;;21.87;nan
19259;BME280;9763;48.780;9.212;2023-06-10T02:13:33;97975.63;;;21.82;nan
19259;BME280;9763;48.780;9.212;2023-06-10T02:16:56;97969.00;;;21.78;nan
19259;BME280;9763;48.780;9.212;2023-06-10T02:20:20;97973.03;;;21.74;nan
19259;BME280;9763;48.780;9.212;2023-06-10T02:23:44;97966.50;;;21.62;nan
19259;BME280;9763;48.780;9.212;2023-06-10T02:27:08;97977.06;;;21.70;nan
19259;BME280;9763;48.780;9.212;2023-06-10T02:30:33;97975.75;;;21.66;nan
19259;BME280;9763;48.780;9.212;2023-06-10T02:33:57;97945.78;;;21.43;nan
19259;BME280;9763;48.780;9.212;2023-06-10T02:37:21;97986.75;;;21.63;nan
19259;BME280;9763;48.780;9.212;2023-06-10T02:40:44;97977.38;;;21.52;nan
19259;BME280;9763;48.780;9.212;2023-06-10T02:44:08;97989.31;;;21.56;nan
19259;BME280;9763;48.780;9.212;2023-06-10T02:47:34;97996.63;;;21.54;nan
19259;BME280;9763;48.780;9.212;2023-06-10T02:50:58;97997.81;;;21.52;nan
19259;BME280;9763;48.780;9.212;2023-06-10T02:54:31;98000.00;;;21.48;nan
19259;BME280;9763;48.780;9.212;2023-06-10T02:57:54;98003.00;;;21.45;nan
19259;BME280;9763;48.780;9.212;2023-06-10T03:01:20;98007.50;;;21.45;nan
19259;BME280;9763;48.780;9.212;2023-06-10T03:04:54;97992.09;;;21.40;nan
19259;BME280;9763;48.780;9.212;2023-06-10T03:08:18;98001.06;;;21.39;nan
19259;BME280;9763;48.780;9.212;2023-06-10T03:11:41;97988.69;;;21.32;nan
19259;BME280;9763;48.780;9.212;2023-06-10T03:15:06;98001.78;;;21.33;nan
19259;BME280;9763;48.780;9.212;2023-06-10T03:18:31;98002.31;;;21.29;nan
19259;BME280;9763;48.780;9.212;2023-06-10T03:22:07;98015.56;;;21.29;nan
19259;BME280;9763;48.780;9.212;2023-06-10T03:25:34;98015.91;;;21.26;nan
19259;BME280;9763;48.780;9.212;2023-06-10T03:28:58;98017.78;;;21.25;nan
19259;BME280;9763;48.780;9.212;2023-06-10T03:32:23;98015.00;;;21.18;nan
19259;BME280;9763;48.780;9.212;2023-06-10T03:35:47;98026.25;;;21.20;nan
19259;BME280;9763;48.780;9.212;2023-06-10T03:39:13;98032.06;;;21.24;nan
19259;BME280;9763;48.780;9.212;2023-06-10T03:42:37;98032.69;;;21.26;nan
19259;BME280;9763;48.780;9.212;2023-06-10T03:46:03;98034.00;;;21.30;nan
19259;BME280;9763;48.780;9.212;2023-06-10T03:49:28;98033.28;;;21.36;nan
19259;BME280;9763;48.780;9.212;2023-06-10T03:52:55;98035.72;;;21.46;nan
19259;BME280;9763;48.780;9.212;2023-06-10T03:56:22;98040.59;;;21.57;nan
19259;BME280;9763;48.780;9.212;2023-06-10T03:59:46;98028.06;;;21.66;nan
19259;BME280;9763;48.780;9.212;2023-06-10T04:03:10;98047.41;;;21.97;nan
19259;BME280;9763;48.780;9.212;2023-06-10T04:06:43;98043.97;;;22.26;nan
19259;BME280;9763;48.780;9.212;2023-06-10T04:10:09;98047.06;;;22.59;nan
19259;BME280;9763;48.780;9.212;2023-06-10T04:13:34;98035.06;;;22.92;nan
19259;BME280;9763;48.780;9.212;2023-06-10T04:16:59;98035.25;;;23.27;nan
19259;BME280;9763;48.780;9.212;2023-06-10T04:20:24;98038.25;;;23.60;nan
19259;BME280;9763;48.780;9.212;2023-06-10T04:23:48;98039.34;;;23.93;nan
19259;BME280;9763;48.780;9.212;2023-06-10T04:27:12;98050.53;;;24.31;nan
19259;BME280;9763;48.780;9.212;2023-06-10T04:30:37;98051.56;;;24.71;nan
19259;BME280;9763;48.780;9.212;2023-06-10T04:34:01;98037.34;;;25.05;nan
19259;BME280;9763;48.780;9.212;2023-06-10T04:37:26;98044.06;;;25.56;nan
19259;BME280;9763;48.780;9.212;2023-06-10T04:40:51;98048.00;;;25.99;nan
19259;BME280;9763;48.780;9.212;2023-06-10T04:44:17;98051.91;;;26.43;nan
19259;BME280;9763;48.780;9.212;2023-06-10T04:47:42;98052.59;;;26.89;nan
19259;BME280;9763;48.780;9.212;2023-06-10T04:51:06;98044.34;;;27.29;nan
19259;BME280;9763;48.780;9.212;2023-06-10T04:54:30;98041.47;;;27.69;nan
19259;BME280;9763;48.780;9.212;2023-06-10T04:57:55;98047.53;;;28.07;nan
19259;BME280;9763;48.780;9.212;2023-06-10T05:01:19;98047.94;;;28.54;nan
19259;BME280;9763;48.780;9.212;2023-06-10T05:04:44;98052.56;;;29.01;nan
19259;BME280;9763;48.780;9.212;2023-06-10T05:08:08;98048.72;;;29.46;nan
19259;BME280;9763;48.780;9.212;2023-06-10T05:11:32;98054.78;;;29.94;nan
19259;BME280;9763;48.780;9.212;2023-06-10T05:14:55;98039.94;;;30.38;nan
19259;BME280;9763;48.780;9.212;2023-06-10T05:18:19;98038.03;;;30.86;nan
19259;BME280;9763;48.780;9.212;2023-06-10T05:21:45;98037.81;;;31.27;nan
19259;BME280;9763;48.780;9.212;2023-06-10T05:25:09;98041.97;;;31.63;nan
19259;BME280;9763;48.780;9.212;2023-06-10T05:28:33;98042.16;;;32.07;nan
19259;BME280;9763;48.780;9.212;2023-06-10T05:31:57;98049.63;;;32.72;nan
19259;BME280;9763;48.780;9.212;2023-06-10T05:35:25;98057.38;;;33.29;nan
19259;BME280;9763;48.780;9.212;2023-06-10T05:38:50;98055.72;;;33.81;nan
19259;BME280;9763;48.780;9.212;2023-06-10T05:42:14;98049.91;;;34.26;nan
19259;BME280;9763;48.780;9.212;2023-06-10T05:45:38;98049.59;;;34.70;nan
19259;BME280;9763;48.780;9.212;2023-06-10T05:49:03;98055.50;;;35.14;nan
19259;BME280;9763;48.780;9.212;2023-06-10T05:52:26;98061.06;;;35.65;nan
19259;BME280;9763;48.780;9.212;2023-06-10T05:55:51;98055.13;;;36.19;nan
19259;BME280;9763;48.780;9.212;2023-06-10T05:59:19;98060.25;;;36.71;nan
19259;BME280;9763;48.780;9.212;2023-06-10T06:02:45;98059.22;;;37.26;nan
19259;BME280;9763;48.780;9.212;2023-06-10T06:06:08;98053.13;;;37.83;nan
19259;BME280;9763;48.780;9.212;2023-06-10T06:09:33;98048.81;;;38.40;nan
19259;BME280;9763;48.780;9.212;2023-06-10T06:12:58;98056.44;;;38.91;nan
19259;BME280;9763;48.780;9.212;2023-06-10T06:16:21;98061.72;;;39.30;nan
19259;BME280;9763;48.780;9.212;2023-06-10T06:19:45;98064.41;;;39.73;nan
19259;BME280;9763;48.780;9.212;2023-06-10T06:23:10;98055.03;;;40.11;nan
19259;BME280;9763;48.780;9.212;2023-06-10T06:26:33;98057.63;;;40.35;nan
19259;BME280;9763;48.780;9.212;2023-06-10T06:29:58;98060.72;;;40.61;nan
19259;BME280;9763;48.780;9.212;2023-06-10T06:33:23;98039.13;;;40.73;nan
19259;BME280;9763;48.780;9.212;2023-06-10T06:36:48;98063.56;;;41.24;nan
19259;BME280;9763;48.780;9.212;2023-06-10T06:40:13;98051.31;;;41.58;nan
19259;BME280;9763;48.780;9.212;2023-06-10T06:43:37;98060.44;;;41.89;nan
19259;BME280;9763;48.780;9.212;2023-06-10T06:47:20;98062.88;;;42.13;nan
19259;BME280;9763;48.780;9.212;2023-06-10T06:50:44;98057.63;;;42.25;nan
19259;BME280;9763;48.780;9.212;2023-06-10T06:54:09;98063.91;;;42.48;nan
19259;BME280;9763;48.780;9.212;2023-06-10T06:57:33;98061.09;;;42.70;nan
19259;BME280;9763;48.780;9.212;2023-06-10T07:00:57;98058.47;;;42.96;nan
19259;BME280;9763;48.780;9.212;2023-06-10T07:04:22;98062.81;;;42.97;nan
19259;BME280;9763;48.780;9.212;2023-06-10T07:07:46;98065.91;;;43.13;nan
19259;BME280;9763;48.780;9.212;2023-06-10T07:11:10;98050.22;;;43.13;nan
19259;BME280;9763;48.780;9.212;2023-06-10T07:14:33;98063.56;;;43.29;nan
19259;BME280;9763;48.780;9.212;2023-06-10T07:17:58;98046.25;;;43.20;nan
19259;BME280;9763;48.780;9.212;2023-06-10T07:21:23;98056.44;;;43.28;nan
19259;BME280;9763;48.780;9.212;2023-06-10T07:24:47;98061.97;;;43.45;nan
19259;BME280;9763;48.780;9.212;2023-06-10T07:28:10;98058.59;;;43.65;nan
19259;BME280;9763;48.780;9.212;2023-06-10T07:31:34;98053.38;;;43.90;nan
19259;BME280;9763;48.780;9.212;2023-06-10T07:34:58;98049.16;;;44.18;nan
19259;BME280;9763;48.780;9.212;2023-06-10T07:38:23;98046.25;;;44.61;nan
19259;BME280;9763;48.780;9.212;2023-06-10T07:41:46;98050.16;;;44.98;nan
19259;BME280;9763;48.780;9.212;2023-06-10T07:45:11;98055.72;;;45.19;nan
19259;BME280;9763;48.780;9.212;2023-06-10T07:48:35;98054.47;;;45.37;nan
19259;BME280;9763;48.780;9.212;2023-06-10T07:51:58;98050.00;;;45.45;nan
19259;BME280;9763;48.780;9.212;2023-06-10T07:55:23;98053.84;;;45.73;nan
19259;BME280;9763;48.780;9.212;2023-06-10T07:58:48;98051.00;;;46.03;nan
19259;BME280;9763;48.780;9.212;2023-06-10T08:02:12;98049.78;;;46.24;nan
19259;BME280;9763;48.780;9.212;2023-06-10T08:05:36;98047.78;;;46.46;nan
19259;BME280;9763;48.780;9.212;2023-06-10T08:09:00;98043.06;;;46.58;nan
19259;BME280;9763;48.780;9.212;2023-06-10T08:12:25;98047.09;;;46.49;nan
19259;BME280;9763;48.780;9.212;2023-06-10T08:15:48;98033.16;;;46.45;nan
19259;BME280;9763;48.780;9.212;2023-06-10T08:19:13;98040.91;;;46.64;nan
19259;BME280;9763;48.780;9.212;2023-06-10T08:22:37;98040.69;;;46.69;nan
19259;BME280;9763;48.780;9.212;2023-06-10T08:26:02;98035.84;;;46.66;nan
19259;BME280;9763;48.780;9.212;2023-06-10T08:29:27;98035.97;;;46.82;nan
19259;BME280;9763;48.780;9.212;2023-06-10T08:32:51;98036.44;;;46.72;nan
19259;BME280;9763;48.780;9.212;2023-06-10T08:36:15;98037.66;;;46.74;nan
19259;BME280;9763;48.780;9.212;2023-06-10T08:39:39;98030.91;;;46.72;nan
19259;BME280;9763;48.780;9.212;2023-06-10T08:43:07;98031.25;;;46.70;nan
19259;BME280;9763;48.780;9.212;2023-06-10T08:46:33;98029.50;;;46.90;nan
19259;BME280;9763;48.780;9.212;2023-06-10T08:50:01;98036.31;;;47.05;nan
19259;BME280;9763;48.780;9.212;2023-06-10T08:53:29;98026.75;;;47.02;nan
19259;BME280;9763;48.780;9.212;2023-06-10T08:56:58;98029.13;;;47.16;nan
19259;BME280;9763;48.780;9.212;2023-06-10T09:00:24;98025.31;;;47.33;nan
19259;BME280;9763;48.780;9.212;2023-06-10T09:03:51;98033.13;;;47.43;nan
19259;BME280;9763;48.780;9.212;2023-06-10T09:07:16;98027.91;;;47.53;nan
19259;BME280;9763;48.780;9.212;2023-06-10T09:10:40;98016.72;;;47.50;nan
19259;BME280;9763;48.780;9.212;2023-06-10T09:14:04;98016.41;;;47.39;nan
19259;BME280;9763;48.780;9.212;2023-06-10T09:17:28;98012.31;;;47.21;nan
19259;BME280;9763;48.780;9.212;2023-06-10T09:20:53;98022.56;;;47.20;nan
19259;BME280;9763;48.780;9.212;2023-06-10T09:24:17;98014.47;;;47.27;nan
19259;BME280;9763;48.780;9.212;2023-06-10T09:27:46;98024.88;;;47.58;nan
19259;BME280;9763;48.780;9.212;2023-06-10T09:31:12;98011.44;;;47.73;nan
19259;BME280;9763;48.780;9.212;2023-06-10T09:34:36;98014.19;;;47.85;nan
19259;BME280;9763;48.780;9.212;2023-06-10T09:38:01;98017.28;;;48.11;nan
19259;BME280;9763;48.780;9.212;2023-06-10T09:41:32;98010.69;;;48.31;nan
19259;BME280;9763;48.780;9.212;2023-06-10T09:44:57;98013.97;;;48.06;nan
19259;BME280;9763;48.780;9.212;2023-06-10T09:48:20;98003.97;;;47.33;nan
19259;BME280;9763;48.780;9.212;2023-06-10T09:51:51;98004.97;;;47.01;nan
19259;BME280;9763;48.780;9.212;2023-06-10T09:55:17;98006.66;;;45.87;nan
19259;BME280;9763;48.780;9.212;2023-06-10T09:58:41;98009.09;;;44.38;nan
19259;BME280;9763;48.780;9.212;2023-06-10T10:02:06;98014.22;;;43.75;nan
19259;BME280;9763;48.780;9.212;2023-06-10T10:05:32;97998.88;;;42.66;nan
19259;BME280;9763;48.780;9.212;2023-06-10T10:08:56;97999.84;;;43.18;nan
19259;BME280;9763;48.780;9.212;2023-06-10T10:12:22;97995.13;;;43.36;nan
19259;BME280;9763;48.780;9.212;2023-06-10T10:15:48;97992.50;;;44.55;nan
19259;BME280;9763;48.780;9.212;2023-06-10T10:19:18;97991.41;;;45.69;nan
19259;BME280;9763;48.780;9.212;2023-06-10T10:22:44;97989.38;;;44.65;nan
19259;BME280;9763;48.780;9.212;2023-06-10T10:26:11;97992.81;;;42.95;nan
19259;BME280;9763;48.780;9.212;2023-06-10T10:29:39;97984.66;;;42.24;nan
19259;BME280;9763;48.780;9.212;2023-06-10T10:33:08;97983.94;;;43.06;nan
19259;BME280;9763;48.780;9.212;2023-06-10T10:36:33;97983.31;;;44.34;nan
19259;BME280;9763;48.780;9.212;2023-06-10T10:39:58;97982.22;;;44.94;nan
19259;BME280;9763;48.780;9.212;2023-06-10T10:43:23;97983.09;;;45.36;nan
19259;BME280;9763;48.780;9.212;2023-06-10T10:46:51;97976.88;;;44.68;nan
19259;BME280;9763;48.780;9.212;2023-06-10T10:50:17;97984.66;;;44.95;nan
19259;BME280;9763;48.780;9.212;2023-06-10T10:53:41;97977.41;;;45.11;nan
19259;BME280;9763;48.780;9.212;2023-06-10T10:57:11;97967.91;;;45.42;nan
19259;BME280;9763;48.780;9.212;2023-06-10T11:00:37;97958.78;;;46.28;nan
19259;BME280;9763;48.780;9.212;2023-06-10T11:04:07;97972.09;;;46.14;nan
19259;BME280;9763;48.780;9.212;2023-06-10T11:07:33;97967.00;;;45.17;nan
19259;BME280;9763;48.780;9.212;2023-06-10T11:10:56;97964.09;;;43.44;nan
19259;BME280;9763;48.780;9.212;2023-06-10T11:14:27;97962.22;;;42.31;nan
19259;BME280;9763;48.780;9.212;2023-06-10T11:18:21;97970.44;;;41.69;nan
19259;BME280;9763;48.780;9.212;2023-06-10T11:22:00;97943.13;;;42.17;nan
19259;BME280;9763;48.780;9.212;2023-06-10T11:25:38;97955.72;;;42.58;nan
19259;BME280;9763;48.780;9.212;2023-06-10T11:29:08;97967.00;;;43.56;nan
19259;BME280;9763;48.780;9.212;2023-06-10T11:32:34;97951.72;;;44.78;nan
19259;BME280;9763;48.780;9.212;2023-06-10T11:35:58;97956.25;;;44.74;nan
19259;BME280;9763;48.780;9.212;2023-06-10T11:39:24;97956.09;;;44.70;nan
19259;BME280;9763;48.780;9.212;2023-06-10T11:42:49;97949.97;;;45.56;nan
19259;BME280;9763;48.780;9.212;2023-06-10T11:46:14;97945.56;;;46.46;nan
19259;BME280;9763;48.780;9.212;2023-06-10T11:49:38;97939.69;;;46.59;nan
19259;BME280;9763;48.780;9.212;2023-06-10T11:53:04;97927.22;;;46.78;nan
19259;BME280;9763;48.780;9.212;2023-06-10T11:56:31;97935.88;;;47.28;nan
19259;BME280;9763;48.780;9.212;2023-06-10T11:59:55;97937.94;;;47.59;nan
19259;BME280;9763;48.780;9.212;2023-06-10T12:03:20;97921.66;;;48.01;nan
19259;BME280;9763;48.780;9.212;2023-06-10T12:06:46;97923.84;;;47.09;nan
19259;BME280;9763;48.780;9.212;2023-06-10T12:10:11;97935.66;;;45.75;nan
19259;BME280;9763;48.780;9.212;2023-06-10T12:13:48;97910.00;;;43.83;nan
19259;BME280;9763;48.780;9.212;2023-06-10T12:17:12;97933.44;;;42.59;nan
19259;BME280;9763;48.780;9.212;2023-06-10T12:20:37;97899.28;;;41.42;nan
19259;BME280;9763;48.780;9.212;2023-06-10T12:24:06;97939.59;;;41.05;nan
19259;BME280;9763;48.780;9.212;2023-06-10T12:27:31;97929.91;;;40.72;nan
19259;BME280;9763;48.780;9.212;2023-06-10T12:31:07;97919.88;;;39.85;nan
19259;BME280;9763;48.780;9.212;2023-06-10T12:34:34;97926.91;;;39.02;nan
19259;BME280;9763;48.780;9.212;2023-06-10T12:38:00;97936.97;;;38.16;nan
19259;BME280;9763;48.780;9.212;2023-06-10T12:41:25;97922.41;;;37.39;nan
19259;BME280;9763;48.780;9.212;2023-06-10T12:44:53;97922.22;;;37.65;nan
19259;BME280;9763;48.780;9.212;2023-06-10T12:48:22;97936.13;;;39.06;nan
19259;BME280;9763;48.780;9.212;2023-06-10T12:51:49;97909.88;;;40.35;nan
19259;BME280;9763;48.780;9.212;2023-06-10T12:55:13;97922.06;;;41.73;nan
19259;BME280;9763;48.780;9.212;2023-06-10T12:58:37;97902.75;;;41.78;nan
19259;BME280;9763;48.780;9.212;2023-06-10T13:02:01;97914.47;;;41.48;nan
19259;BME280;9763;48.780;9.212;2023-06-10T13:05:27;97914.75;;;42.30;nan
19259;BME280;9763;48.780;9.212;2023-06-10T13:08:52;97899.59;;;42.98;nan
19259;BME280;9763;48.780;9.212;2023-06-10T13:12:16;97904.38;;;43.62;nan
19259;BME280;9763;48.780;9.212;2023-06-10T13:15:55;97879.81;;;42.70;nan
19259;BME280;9763;48.780;9.212;2023-06-10T13:19:19;97907.88;;;41.80;nan
19259;BME280;9763;48.780;9.212;2023-06-10T13:22:45;97906.28;;;40.76;nan
19259;BME280;9763;48.780;9.212;2023-06-10T13:26:10;97895.84;;;41.14;nan
19259;BME280;9763;48.780;9.212;2023-06-10T13:29:34;97893.03;;;41.72;nan
19259;BME280;9763;48.780;9.212;2023-06-10T13:32:57;97893.50;;;42.05;nan
19259;BME280;9763;48.780;9.212;2023-06-10T13:36:21;97890.94;;;42.09;nan
19259;BME280;9763;48.780;9.212;2023-06-10T13:39:46;97881.53;;;41.61;nan
19259;BME280;9763;48.780;9.212;2023-06-10T13:43:11;97892.16;;;40.82;nan
19259;BME280;9763;48.780;9.212;2023-06-10T13:46:35;97883.31;;;39.48;nan
19259;BME280;9763;48.780;9.212;2023-06-10T13:50:00;97902.38;;;38.36;nan
19259;BME280;9763;48.780;9.212;2023-06-10T13:53:24;97891.56;;;37.44;nan
19259;BME280;9763;48.780;9.212;2023-06-10T13:56:49;97865.44;;;36.65;nan
19259;BME280;9763;48.780;9.212;2023-06-10T14:00:13;97897.94;;;36.41;nan
19259;BME280;9763;48.780;9.212;2023-06-10T14:03:37;97893.13;;;36.23;nan
19259;BME280;9763;48.780;9.212;2023-06-10T14:07:01;97880.59;;;36.17;nan
19259;BME280;9763;48.780;9.212;2023-06-10T14:10:25;97892.00;;;36.19;nan
19259;BME280;9763;48.780;9.212;2023-06-10T14:13:50;97870.59;;;36.07;nan
19259;BME280;9763;48.780;9.212;2023-06-10T14:17:14;97860.88;;;35.86;nan
19259;BME280;9763;48.780;9.212;2023-06-10T14:20:38;97867.41;;;35.59;nan
19259;BME280;9763;48.780;9.212;2023-06-10T14:24:02;97875.84;;;35.27;nan
19259;BME280;9763;48.780;9.212;2023-06-10T14:27:26;97882.88;;;34.88;nan
19259;BME280;9763;48.780;9.212;2023-06-10T14:30:51;97876.53;;;34.62;nan
19259;BME280;9763;48.780;9.212;2023-06-10T14:34:15;97875.69;;;34.41;nan
19259;BME280;9763;48.780;9.212;2023-06-10T14:37:38;97857.94;;;34.23;nan
19259;BME280;9763;48.780;9.212;2023-06-10T14:41:02;97862.53;;;34.13;nan
19259;BME280;9763;48.780;9.212;2023-06-10T14:44:26;97870.63;;;34.08;nan
19259;BME280;9763;48.780;9.212;2023-06-10T14:47:51;97869.44;;;33.93;nan
19259;BME280;9763;48.780;9.212;2023-06-10T14:51:15;97870.94;;;33.69;nan
19259;BME280;9763;48.780;9.212;2023-06-10T14:54:38;97866.69;;;33.46;nan
19259;BME280;9763;48.780;9.212;2023-06-10T14:58:02;97866.56;;;33.26;nan
19259;BME280;9763;48.780;9.212;2023-06-10T15:01:25;97861.25;;;33.09;nan
19259;BME280;9763;48.780;9.212;2023-06-10T15:04:50;97865.22;;;32.97;nan
19259;BME280;9763;48.780;9.212;2023-06-10T15:08:14;97869.44;;;32.87;nan
19259;BME280;9763;48.780;9.212;2023-06-10T15:11:38;97863.69;;;32.79;nan
19259;BME280;9763;48.780;9.212;2023-06-10T15:15:02;97858.72;;;32.71;nan
19259;BME280;9763;48.780;9.212;2023-06-10T15:18:26;97868.06;;;32.63;nan
19259;BME280;9763;48.780;9.212;2023-06-10T15:21:51;97857.97;;;32.53;nan
19259;BME280;9763;48.780;9.212;2023-06-10T15:25:16;97857.13;;;32.48;nan
19259;BME280;9763;48.780;9.212;2023-06-10T15:28:52;97850.75;;;32.37;nan
19259;BME280;9763;48.780;9.212;2023-06-10T15:32:15;97864.84;;;32.39;nan
19259;BME280;9763;48.780;9.212;2023-06-10T15:35:41;97853.78;;;32.41;nan
19259;BME280;9763;48.780;9.212;2023-06-10T15:39:06;97844.63;;;32.42;nan
19259;BME280;9763;48.780;9.212;2023-06-10T15:42:29;97842.84;;;32.52;nan
19259;BME280;9763;48.780;9.212;2023-06-10T15:45:53;97827.41;;;32.48;nan
19259;BME280;9763;48.780;9.212;2023-06-10T15:49:17;97844.00;;;32.62;nan
19259;BME280;9763;48.780;9.212;2023-06-10T15:52:41;97824.41;;;32.49;nan
19259;BME280;9763;48.780;9.212;2023-06-10T15:56:06;97840.13;;;32.52;nan
19259;BME280;9763;48.780;9.212;2023-06-10T15:59:30;97842.47;;;32.44;nan
19259;BME280;9763;48.780;9.212;2023-06-10T16:02:54;97847.69;;;32.29;nan
19259;BME280;9763;48.780;9.212;2023-06-10T16:06:18;97822.38;;;31.91;nan
19259;BME280;9763;48.780;9.212;2023-06-10T16:09:42;97852.41;;;31.95;nan
19259;BME280;9763;48.780;9.212;2023-06-10T16:13:07;97832.72;;;31.77;nan
19259;BME280;9763;48.780;9.212;2023-06-10T16:16:31;97845.22;;;31.83;nan
19259;BME280;9763;48.780;9.212;2023-06-10T16:19:55;97844.16;;;31.84;nan
19259;BME280;9763;48.780;9.212;2023-06-10T16:23:19;97848.53;;;31.91;nan
19259;BME280;9763;48.780;9.212;2023-06-10T16:26:43;97837.75;;;31.91;nan
19259;BME280;9763;48.780;9.212;2023-06-10T16:30:09;97843.91;;;32.08;nan
19259;BME280;9763;48.780;9.212;2023-06-10T16:33:35;97830.06;;;32.21;nan
19259;BME280;9763;48.780;9.212;2023-06-10T16:36:59;97837.97;;;32.28;nan
19259;BME280;9763;48.780;9.212;2023-06-10T16:40:23;97836.66;;;32.30;nan
19259;BME280;9763;48.780;9.212;2023-06-10T16:43:47;97843.63;;;32.26;nan
19259;BME280;9763;48.780;9.212;2023-06-10T16:47:12;97828.56;;;32.13;nan
19259;BME280;9763;48.780;9.212;2023-06-10T16:50:36;97847.94;;;32.05;nan
19259;BME280;9763;48.780;9.212;2023-06-10T16:54:00;97851.09;;;31.97;nan
19259;BME280;9763;48.780;9.212;2023-06-10T16:57:23;97849.13;;;31.93;nan
19259;BME280;9763;48.780;9.212;2023-06-10T17:00:47;97843.72;;;31.93;nan
19259;BME280;9763;48.780;9.212;2023-06-10T17:04:13;97854.59;;;31.98;nan
19259;BME280;9763;48.780;9.212;2023-06-10T17:07:36;97855.78;;;32.07;nan
19259;BME280;9763;48.780;9.212;2023-06-10T17:11:00;97848.06;;;32.15;nan
19259;BME280;9763;48.780;9.212;2023-06-10T17:14:24;97854.03;;;32.17;nan
19259;BME280;9763;48.780;9.212;2023-06-10T17:17:48;97862.88;;;32.13;nan
19259;BME280;9763;48.780;9.212;2023-06-10T17:21:14;97857.59;;;32.01;nan
19259;BME280;9763;48.780;9.212;2023-06-10T17:24:37;97878.09;;;31.97;nan
19259;BME280;9763;48.780;9.212;2023-06-10T17:28:02;97871.47;;;31.88;nan
19259;BME280;9763;48.780;9.212;2023-06-10T17:31:25;97873.47;;;31.76;nan
19259;BME280;9763;48.780;9.212;2023-06-10T17:34:49;97882.38;;;31.60;nan
19259;BME280;9763;48.780;9.212;2023-06-10T17:38:14;97886.13;;;31.42;nan
19259;BME280;9763;48.780;9.212;2023-06-10T17:41:39;97886.75;;;31.27;nan
19259;BME280;9763;48.780;9.212;2023-06-10T17:45:03;97884.38;;;31.14;nan
19259;BME280;9763;48.780;9.212;2023-06-10T17:48:26;97895.25;;;31.07;nan
19259;BME280;9763;48.780;9.212;2023-06-10T17:51:50;97888.28;;;30.95;nan
19259;BME280;9763;48.780;9.212;2023-06-10T17:55:15;97895.97;;;30.86;nan
19259;BME280;9763;48.780;9.212;2023-06-10T17:58:39;97896.75;;;30.70;nan
19259;BME280;9763;48.780;9.212;2023-06-10T18:02:05;97904.63;;;30.60;nan
19259;BME280;9763;48.780;9.212;2023-06-10T18:05:29;97902.19;;;30.47;nan
19259;BME280;9763;48.780;9.212;2023-06-10T18:08:52;97913.00;;;30.35;nan
19259;BME280;9763;48.780;9.212;2023-06-10T18:12:17;97913.03;;;30.23;nan
19259;BME280;9763;48.780;9.212;2023-06-10T18:15:41;97915.50;;;30.13;nan
19259;BME280;9763;48.780;9.212;2023-06-10T18:19:05;97923.97;;;30.05;nan
19259;BME280;9763;48.780;9.212;2023-06-10T18:22:28;97923.47;;;29.96;nan
19259;BME280;9763;48.780;9.212;2023-06-10T18:25:52;97925.09;;;29.86;nan
19259;BME280;9763;48.780;9.212;2023-06-10T18:29:17;97931.19;;;29.81;nan
19259;BME280;9763;48.780;9.212;2023-06-10T18:32:41;97926.75;;;29.75;nan
19259;BME280;9763;48.780;9.212;2023-06-10T18:36:05;97934.72;;;29.70;nan
19259;BME280;9763;48.780;9.212;2023-06-10T18:39:29;97930.72;;;29.61;nan
19259;BME280;9763;48.780;9.212;2023-06-10T18:42:52;97943.81;;;29.57;nan
19259;BME280;9763;48.780;9.212;2023-06-10T18:46:17;97937.03;;;29.43;nan
19259;BME280;9763;48.780;9.212;2023-06-10T18:49:41;97956.06;;;29.42;nan
19259;BME280;9763;48.780;9.212;2023-06-10T18:53:05;97959.06;;;29.33;nan